Pfugerville's Hourly Summary for Friday, April 14, 2017
Hour Temp
(f)
RH
(%)
Solar Rad.
(MJ/m2)
Rainfall
(in)
Wind
(mph)
4/14/2017 12:00 AM 65 96 0 0 3.08
4/14/2017 1:00 AM 64 99 0 0 3.25
4/14/2017 2:00 AM 62 100 0 0 1.65
4/14/2017 3:00 AM 63 100 0 0 1.19
4/14/2017 4:00 AM 63 100 0 0 0.62
4/14/2017 5:00 AM 62 100 0 0 1.13
4/14/2017 6:00 AM 62 100 0 0 2.95
4/14/2017 7:00 AM 63 100 0 0 1.99
4/14/2017 8:00 AM 63 100 0.07 0 1.83
4/14/2017 9:00 AM 63 100 0.26 0 3.35
4/14/2017 10:00 AM 65 100 0.91 0 5.56
4/14/2017 11:00 AM 68 100 1.51 0 6.95
4/14/2017 12:00 PM 71 99 1.64 0 7.29
4/14/2017 1:00 PM 73 91 2.12 0 7.3
4/14/2017 2:00 PM 75 70 2.41 0 8.63
4/14/2017 3:00 PM 78 60 3.22 0 8.33
4/14/2017 4:00 PM 78 60 2.19 0 7.16
4/14/2017 5:00 PM 78 59 1.67 0 5.63
4/14/2017 6:00 PM 78 59 0.69 0 6.14
4/14/2017 7:00 PM 78 59 0.68 0 5.49
4/14/2017 8:00 PM 76 60 0.21 0 3.93
4/14/2017 9:00 PM 72 72 0 0 0.85
4/14/2017 10:00 PM 69 86 0 0 3.37
4/14/2017 11:00 PM 68 100 0 0 3.96
Data Summary 69 86 17.58 0.00 4.23